sensor_id;sensor_type;location;lat;lon;timestamp;P1;durP1;ratioP1;P2;durP2;ratioP2
60502;SDS011;51448;51.660;5.824;2022-12-22T00:02:45;11.35;;;9.07;;
60502;SDS011;51448;51.660;5.824;2022-12-22T00:05:32;12.35;;;9.40;;
60502;SDS011;51448;51.660;5.824;2022-12-22T00:08:18;13.45;;;9.93;;
60502;SDS011;51448;51.660;5.824;2022-12-22T00:11:05;11.52;;;10.02;;
60502;SDS011;51448;51.660;5.824;2022-12-22T00:16:42;13.27;;;9.50;;
60502;SDS011;51448;51.660;5.824;2022-12-22T00:19:29;13.05;;;10.52;;
60502;SDS011;51448;51.660;5.824;2022-12-22T00:22:19;14.50;;;11.30;;
60502;SDS011;51448;51.660;5.824;2022-12-22T00:25:08;12.38;;;10.55;;
60502;SDS011;51448;51.660;5.824;2022-12-22T00:27:59;12.63;;;11.00;;
60502;SDS011;51448;51.660;5.824;2022-12-22T00:30:48;13.07;;;10.45;;
60502;SDS011;51448;51.660;5.824;2022-12-22T00:33:34;13.45;;;11.00;;
60502;SDS011;51448;51.660;5.824;2022-12-22T00:36:20;11.95;;;10.55;;
60502;SDS011;51448;51.660;5.824;2022-12-22T00:39:11;11.65;;;9.75;;
60502;SDS011;51448;51.660;5.824;2022-12-22T00:41:58;11.43;;;10.00;;
60502;SDS011;51448;51.660;5.824;2022-12-22T00:44:44;13.93;;;10.10;;
60502;SDS011;51448;51.660;5.824;2022-12-22T00:47:30;12.90;;;10.77;;
60502;SDS011;51448;51.660;5.824;2022-12-22T00:50:16;12.45;;;9.70;;
60502;SDS011;51448;51.660;5.824;2022-12-22T00:53:03;11.82;;;9.82;;
60502;SDS011;51448;51.660;5.824;2022-12-22T00:55:50;12.35;;;10.48;;
60502;SDS011;51448;51.660;5.824;2022-12-22T00:58:36;12.65;;;10.32;;
60502;SDS011;51448;51.660;5.824;2022-12-22T01:01:22;12.52;;;10.02;;
60502;SDS011;51448;51.660;5.824;2022-12-22T01:04:11;11.98;;;9.75;;
60502;SDS011;51448;51.660;5.824;2022-12-22T01:06:57;11.98;;;10.40;;
60502;SDS011;51448;51.660;5.824;2022-12-22T01:09:44;12.15;;;9.82;;
60502;SDS011;51448;51.660;5.824;2022-12-22T01:12:36;12.75;;;10.25;;
60502;SDS011;51448;51.660;5.824;2022-12-22T01:15:25;14.20;;;10.70;;
60502;SDS011;51448;51.660;5.824;2022-12-22T01:18:14;17.67;;;11.95;;
60502;SDS011;51448;51.660;5.824;2022-12-22T01:21:01;12.52;;;10.45;;
60502;SDS011;51448;51.660;5.824;2022-12-22T01:23:48;14.50;;;11.40;;
60502;SDS011;51448;51.660;5.824;2022-12-22T01:26:34;12.55;;;11.00;;
60502;SDS011;51448;51.660;5.824;2022-12-22T01:29:20;14.55;;;11.05;;
60502;SDS011;51448;51.660;5.824;2022-12-22T01:32:09;14.52;;;11.77;;
60502;SDS011;51448;51.660;5.824;2022-12-22T01:34:59;15.13;;;11.73;;
60502;SDS011;51448;51.660;5.824;2022-12-22T01:37:45;15.30;;;12.25;;
60502;SDS011;51448;51.660;5.824;2022-12-22T01:40:31;14.80;;;12.00;;
60502;SDS011;51448;51.660;5.824;2022-12-22T01:43:24;14.48;;;12.23;;
60502;SDS011;51448;51.660;5.824;2022-12-22T01:46:19;17.15;;;12.00;;
60502;SDS011;51448;51.660;5.824;2022-12-22T01:52:07;16.05;;;12.45;;
60502;SDS011;51448;51.660;5.824;2022-12-22T01:54:58;14.90;;;12.32;;
60502;SDS011;51448;51.660;5.824;2022-12-22T01:57:50;14.77;;;11.63;;
60502;SDS011;51448;51.660;5.824;2022-12-22T02:00:37;17.45;;;12.15;;
60502;SDS011;51448;51.660;5.824;2022-12-22T02:03:24;16.27;;;13.10;;
60502;SDS011;51448;51.660;5.824;2022-12-22T02:12:28;16.70;;;13.55;;
60502;SDS011;51448;51.660;5.824;2022-12-22T02:15:24;20.02;;;14.00;;
60502;SDS011;51448;51.660;5.824;2022-12-22T02:18:28;17.77;;;13.65;;
60502;SDS011;51448;51.660;5.824;2022-12-22T02:21:32;18.77;;;13.40;;
60502;SDS011;51448;51.660;5.824;2022-12-22T02:24:42;14.52;;;12.93;;
60502;SDS011;51448;51.660;5.824;2022-12-22T02:27:37;15.93;;;13.88;;
60502;SDS011;51448;51.660;5.824;2022-12-22T02:30:28;18.60;;;13.70;;
60502;SDS011;51448;51.660;5.824;2022-12-22T02:33:18;14.88;;;13.27;;
60502;SDS011;51448;51.660;5.824;2022-12-22T02:36:11;18.40;;;13.90;;
60502;SDS011;51448;51.660;5.824;2022-12-22T02:42:53;17.48;;;14.52;;
60502;SDS011;51448;51.660;5.824;2022-12-22T02:52:14;18.83;;;14.23;;
60502;SDS011;51448;51.660;5.824;2022-12-22T02:55:10;19.42;;;14.18;;
60502;SDS011;51448;51.660;5.824;2022-12-22T02:58:00;20.85;;;14.40;;
60502;SDS011;51448;51.660;5.824;2022-12-22T03:00:46;18.85;;;14.95;;
60502;SDS011;51448;51.660;5.824;2022-12-22T03:03:33;19.15;;;15.13;;
60502;SDS011;51448;51.660;5.824;2022-12-22T03:06:19;18.25;;;15.65;;
60502;SDS011;51448;51.660;5.824;2022-12-22T03:09:05;20.25;;;15.73;;
60502;SDS011;51448;51.660;5.824;2022-12-22T03:11:51;18.13;;;14.70;;
60502;SDS011;51448;51.660;5.824;2022-12-22T03:14:37;22.75;;;16.60;;
60502;SDS011;51448;51.660;5.824;2022-12-22T03:17:24;18.60;;;15.35;;
60502;SDS011;51448;51.660;5.824;2022-12-22T03:20:10;23.13;;;17.33;;
60502;SDS011;51448;51.660;5.824;2022-12-22T03:22:55;19.45;;;15.88;;
60502;SDS011;51448;51.660;5.824;2022-12-22T03:25:46;21.70;;;16.40;;
60502;SDS011;51448;51.660;5.824;2022-12-22T03:28:20;23.08;;;17.15;;
60502;SDS011;51448;51.660;5.824;2022-12-22T03:30:52;19.48;;;16.77;;
60502;SDS011;51448;51.660;5.824;2022-12-22T03:33:29;22.27;;;17.50;;
60502;SDS011;51448;51.660;5.824;2022-12-22T03:35:58;26.15;;;18.38;;
60502;SDS011;51448;51.660;5.824;2022-12-22T03:38:27;27.90;;;18.13;;
60502;SDS011;51448;51.660;5.824;2022-12-22T03:40:55;24.80;;;17.35;;
60502;SDS011;51448;51.660;5.824;2022-12-22T03:43:23;22.05;;;16.58;;
60502;SDS011;51448;51.660;5.824;2022-12-22T03:46:14;21.70;;;17.27;;
60502;SDS011;51448;51.660;5.824;2022-12-22T03:48:43;22.25;;;17.45;;
60502;SDS011;51448;51.660;5.824;2022-12-22T03:51:32;22.33;;;17.63;;
60502;SDS011;51448;51.660;5.824;2022-12-22T03:54:01;23.50;;;16.52;;
60502;SDS011;51448;51.660;5.824;2022-12-22T03:56:29;27.60;;;18.73;;
60502;SDS011;51448;51.660;5.824;2022-12-22T03:58:56;22.00;;;18.02;;
60502;SDS011;51448;51.660;5.824;2022-12-22T04:01:24;33.85;;;18.98;;
60502;SDS011;51448;51.660;5.824;2022-12-22T04:03:51;30.40;;;18.90;;
60502;SDS011;51448;51.660;5.824;2022-12-22T04:06:19;24.15;;;18.85;;
60502;SDS011;51448;51.660;5.824;2022-12-22T04:08:47;90.18;;;21.80;;
60502;SDS011;51448;51.660;5.824;2022-12-22T04:11:15;39.15;;;17.10;;
60502;SDS011;51448;51.660;5.824;2022-12-22T04:14:02;23.10;;;17.75;;
60502;SDS011;51448;51.660;5.824;2022-12-22T04:16:30;38.78;;;19.23;;
60502;SDS011;51448;51.660;5.824;2022-12-22T04:18:57;21.73;;;18.02;;
60502;SDS011;51448;51.660;5.824;2022-12-22T04:21:25;20.83;;;17.02;;
60502;SDS011;51448;51.660;5.824;2022-12-22T04:23:53;34.38;;;18.95;;
60502;SDS011;51448;51.660;5.824;2022-12-22T04:26:22;33.25;;;19.20;;
60502;SDS011;51448;51.660;5.824;2022-12-22T04:28:51;26.02;;;18.42;;
60502;SDS011;51448;51.660;5.824;2022-12-22T04:31:20;164.68;;;23.13;;
60502;SDS011;51448;51.660;5.824;2022-12-22T04:33:48;136.40;;;21.92;;
60502;SDS011;51448;51.660;5.824;2022-12-22T04:36:16;63.17;;;19.05;;
60502;SDS011;51448;51.660;5.824;2022-12-22T04:38:45;81.05;;;23.38;;
60502;SDS011;51448;51.660;5.824;2022-12-22T04:41:12;72.78;;;22.17;;
60502;SDS011;51448;51.660;5.824;2022-12-22T04:43:40;39.88;;;20.63;;
60502;SDS011;51448;51.660;5.824;2022-12-22T04:46:07;36.28;;;21.08;;
60502;SDS011;51448;51.660;5.824;2022-12-22T04:48:35;103.25;;;24.50;;
60502;SDS011;51448;51.660;5.824;2022-12-22T04:51:02;63.35;;;24.60;;
60502;SDS011;51448;51.660;5.824;2022-12-22T04:53:30;83.88;;;23.83;;
60502;SDS011;51448;51.660;5.824;2022-12-22T04:55:59;103.40;;;22.50;;
60502;SDS011;51448;51.660;5.824;2022-12-22T04:58:31;68.22;;;21.55;;
60502;SDS011;51448;51.660;5.824;2022-12-22T05:01:07;26.98;;;18.58;;
60502;SDS011;51448;51.660;5.824;2022-12-22T05:03:40;32.73;;;20.27;;
60502;SDS011;51448;51.660;5.824;2022-12-22T05:06:09;35.08;;;19.42;;
60502;SDS011;51448;51.660;5.824;2022-12-22T05:08:37;26.02;;;17.92;;
60502;SDS011;51448;51.660;5.824;2022-12-22T05:11:05;35.45;;;18.42;;
60502;SDS011;51448;51.660;5.824;2022-12-22T05:13:33;108.97;;;21.98;;
60502;SDS011;51448;51.660;5.824;2022-12-22T05:16:05;101.00;;;20.92;;
60502;SDS011;51448;51.660;5.824;2022-12-22T05:18:36;99.47;;;21.23;;
60502;SDS011;51448;51.660;5.824;2022-12-22T05:21:05;108.03;;;23.83;;
60502;SDS011;51448;51.660;5.824;2022-12-22T05:23:38;25.27;;;17.67;;
60502;SDS011;51448;51.660;5.824;2022-12-22T05:26:06;34.00;;;19.15;;
60502;SDS011;51448;51.660;5.824;2022-12-22T05:28:35;40.38;;;19.15;;
60502;SDS011;51448;51.660;5.824;2022-12-22T05:31:07;364.33;;;33.22;;
60502;SDS011;51448;51.660;5.824;2022-12-22T05:33:40;103.18;;;20.27;;
60502;SDS011;51448;51.660;5.824;2022-12-22T05:36:08;121.05;;;20.73;;
60502;SDS011;51448;51.660;5.824;2022-12-22T05:38:35;206.18;;;22.05;;
60502;SDS011;51448;51.660;5.824;2022-12-22T05:41:03;132.02;;;19.50;;
60502;SDS011;51448;51.660;5.824;2022-12-22T05:43:31;32.35;;;18.08;;
60502;SDS011;51448;51.660;5.824;2022-12-22T05:46:01;239.57;;;23.15;;
60502;SDS011;51448;51.660;5.824;2022-12-22T05:48:34;65.97;;;18.17;;
60502;SDS011;51448;51.660;5.824;2022-12-22T05:51:06;79.30;;;18.83;;
60502;SDS011;51448;51.660;5.824;2022-12-22T05:53:35;32.13;;;19.33;;
60502;SDS011;51448;51.660;5.824;2022-12-22T05:56:05;29.48;;;18.65;;
60502;SDS011;51448;51.660;5.824;2022-12-22T05:58:35;22.63;;;18.85;;
60502;SDS011;51448;51.660;5.824;2022-12-22T06:01:05;31.35;;;20.15;;
60502;SDS011;51448;51.660;5.824;2022-12-22T06:03:33;33.70;;;18.65;;
60502;SDS011;51448;51.660;5.824;2022-12-22T06:06:01;26.95;;;18.88;;
60502;SDS011;51448;51.660;5.824;2022-12-22T06:08:28;154.70;;;25.70;;
60502;SDS011;51448;51.660;5.824;2022-12-22T06:10:56;360.05;;;36.95;;
60502;SDS011;51448;51.660;5.824;2022-12-22T06:13:25;225.88;;;26.70;;
60502;SDS011;51448;51.660;5.824;2022-12-22T06:15:53;78.97;;;22.63;;
60502;SDS011;51448;51.660;5.824;2022-12-22T06:18:20;53.22;;;21.20;;
60502;SDS011;51448;51.660;5.824;2022-12-22T06:20:49;135.05;;;23.85;;
60502;SDS011;51448;51.660;5.824;2022-12-22T06:23:20;52.67;;;19.60;;
60502;SDS011;51448;51.660;5.824;2022-12-22T06:26:01;133.38;;;21.30;;
60502;SDS011;51448;51.660;5.824;2022-12-22T06:28:28;106.03;;;19.70;;
60502;SDS011;51448;51.660;5.824;2022-12-22T06:30:57;60.80;;;19.52;;
60502;SDS011;51448;51.660;5.824;2022-12-22T06:33:24;41.50;;;17.73;;
60502;SDS011;51448;51.660;5.824;2022-12-22T06:35:52;41.88;;;18.40;;
60502;SDS011;51448;51.660;5.824;2022-12-22T06:38:25;31.58;;;18.13;;
60502;SDS011;51448;51.660;5.824;2022-12-22T06:40:54;36.22;;;18.70;;
60502;SDS011;51448;51.660;5.824;2022-12-22T06:43:22;32.30;;;19.05;;
60502;SDS011;51448;51.660;5.824;2022-12-22T06:45:49;30.77;;;17.20;;
60502;SDS011;51448;51.660;5.824;2022-12-22T06:48:18;24.50;;;16.52;;
60502;SDS011;51448;51.660;5.824;2022-12-22T06:50:45;27.48;;;15.77;;
60502;SDS011;51448;51.660;5.824;2022-12-22T06:53:13;24.48;;;16.02;;
60502;SDS011;51448;51.660;5.824;2022-12-22T06:55:40;30.83;;;16.50;;
60502;SDS011;51448;51.660;5.824;2022-12-22T06:58:08;25.27;;;15.60;;
60502;SDS011;51448;51.660;5.824;2022-12-22T07:00:36;26.23;;;16.08;;
60502;SDS011;51448;51.660;5.824;2022-12-22T07:03:03;23.98;;;15.40;;
60502;SDS011;51448;51.660;5.824;2022-12-22T07:05:31;26.27;;;16.83;;
60502;SDS011;51448;51.660;5.824;2022-12-22T07:07:59;31.23;;;17.00;;
60502;SDS011;51448;51.660;5.824;2022-12-22T07:10:34;29.58;;;17.42;;
60502;SDS011;51448;51.660;5.824;2022-12-22T07:13:20;39.20;;;19.58;;
60502;SDS011;51448;51.660;5.824;2022-12-22T07:15:48;35.28;;;19.05;;
60502;SDS011;51448;51.660;5.824;2022-12-22T07:18:25;34.70;;;17.92;;
60502;SDS011;51448;51.660;5.824;2022-12-22T07:20:59;41.00;;;20.95;;
60502;SDS011;51448;51.660;5.824;2022-12-22T07:23:30;36.57;;;21.07;;
60502;SDS011;51448;51.660;5.824;2022-12-22T07:25:58;43.13;;;21.92;;
60502;SDS011;51448;51.660;5.824;2022-12-22T07:28:27;43.28;;;23.05;;
60502;SDS011;51448;51.660;5.824;2022-12-22T07:30:55;41.33;;;21.63;;
60502;SDS011;51448;51.660;5.824;2022-12-22T07:33:22;38.20;;;21.65;;
60502;SDS011;51448;51.660;5.824;2022-12-22T07:36:00;38.83;;;21.20;;
60502;SDS011;51448;51.660;5.824;2022-12-22T07:38:38;40.17;;;22.00;;
60502;SDS011;51448;51.660;5.824;2022-12-22T07:41:10;41.08;;;24.17;;
60502;SDS011;51448;51.660;5.824;2022-12-22T07:43:59;41.47;;;22.02;;
60502;SDS011;51448;51.660;5.824;2022-12-22T07:46:29;42.72;;;22.55;;
60502;SDS011;51448;51.660;5.824;2022-12-22T07:49:03;39.60;;;23.27;;
60502;SDS011;51448;51.660;5.824;2022-12-22T07:51:57;43.58;;;22.23;;
60502;SDS011;51448;51.660;5.824;2022-12-22T07:54:26;41.67;;;21.35;;
60502;SDS011;51448;51.660;5.824;2022-12-22T07:56:54;46.88;;;24.73;;
60502;SDS011;51448;51.660;5.824;2022-12-22T07:59:22;45.20;;;24.75;;
60502;SDS011;51448;51.660;5.824;2022-12-22T08:01:49;43.15;;;23.67;;
60502;SDS011;51448;51.660;5.824;2022-12-22T08:04:18;41.97;;;22.92;;
60502;SDS011;51448;51.660;5.824;2022-12-22T08:06:45;45.10;;;22.95;;
60502;SDS011;51448;51.660;5.824;2022-12-22T08:09:14;46.05;;;23.63;;
60502;SDS011;51448;51.660;5.824;2022-12-22T08:11:44;47.20;;;25.33;;
60502;SDS011;51448;51.660;5.824;2022-12-22T08:14:11;52.35;;;25.15;;
60502;SDS011;51448;51.660;5.824;2022-12-22T08:16:39;47.83;;;24.73;;
60502;SDS011;51448;51.660;5.824;2022-12-22T08:19:06;48.80;;;24.45;;
60502;SDS011;51448;51.660;5.824;2022-12-22T08:21:34;48.53;;;24.80;;
60502;SDS011;51448;51.660;5.824;2022-12-22T08:24:01;53.25;;;26.30;;
60502;SDS011;51448;51.660;5.824;2022-12-22T08:26:30;56.45;;;26.80;;
60502;SDS011;51448;51.660;5.824;2022-12-22T08:29:13;52.55;;;26.65;;
60502;SDS011;51448;51.660;5.824;2022-12-22T08:31:53;53.72;;;24.75;;
60502;SDS011;51448;51.660;5.824;2022-12-22T08:34:21;57.03;;;27.10;;
60502;SDS011;51448;51.660;5.824;2022-12-22T08:36:50;58.20;;;26.45;;
60502;SDS011;51448;51.660;5.824;2022-12-22T08:39:22;58.70;;;26.67;;
60502;SDS011;51448;51.660;5.824;2022-12-22T08:41:53;51.80;;;25.08;;
60502;SDS011;51448;51.660;5.824;2022-12-22T08:44:22;51.42;;;24.92;;
60502;SDS011;51448;51.660;5.824;2022-12-22T08:49:24;53.88;;;25.33;;
60502;SDS011;51448;51.660;5.824;2022-12-22T08:51:53;59.42;;;27.88;;
60502;SDS011;51448;51.660;5.824;2022-12-22T08:54:21;59.33;;;27.20;;
60502;SDS011;51448;51.660;5.824;2022-12-22T08:56:49;56.63;;;25.20;;
60502;SDS011;51448;51.660;5.824;2022-12-22T08:59:17;53.15;;;24.77;;
60502;SDS011;51448;51.660;5.824;2022-12-22T09:01:44;54.33;;;25.10;;
60502;SDS011;51448;51.660;5.824;2022-12-22T09:04:17;54.60;;;25.33;;
60502;SDS011;51448;51.660;5.824;2022-12-22T09:06:49;46.73;;;24.73;;
60502;SDS011;51448;51.660;5.824;2022-12-22T09:09:19;46.13;;;23.77;;
60502;SDS011;51448;51.660;5.824;2022-12-22T09:11:47;50.53;;;24.45;;
60502;SDS011;51448;51.660;5.824;2022-12-22T09:14:15;42.72;;;22.30;;
60502;SDS011;51448;51.660;5.824;2022-12-22T09:16:43;44.03;;;22.08;;
60502;SDS011;51448;51.660;5.824;2022-12-22T09:19:11;44.30;;;22.55;;
60502;SDS011;51448;51.660;5.824;2022-12-22T09:21:38;37.88;;;21.67;;
60502;SDS011;51448;51.660;5.824;2022-12-22T09:24:06;40.85;;;22.65;;
60502;SDS011;51448;51.660;5.824;2022-12-22T09:26:34;38.22;;;21.75;;
60502;SDS011;51448;51.660;5.824;2022-12-22T09:29:03;41.58;;;22.63;;
60502;SDS011;51448;51.660;5.824;2022-12-22T09:31:31;44.58;;;23.33;;
60502;SDS011;51448;51.660;5.824;2022-12-22T09:34:00;41.80;;;22.40;;
60502;SDS011;51448;51.660;5.824;2022-12-22T09:36:29;41.00;;;23.83;;
60502;SDS011;51448;51.660;5.824;2022-12-22T09:38:57;41.85;;;22.90;;
60502;SDS011;51448;51.660;5.824;2022-12-22T09:41:33;44.58;;;23.90;;
60502;SDS011;51448;51.660;5.824;2022-12-22T09:44:25;48.20;;;24.63;;
60502;SDS011;51448;51.660;5.824;2022-12-22T09:46:59;45.42;;;24.75;;
60502;SDS011;51448;51.660;5.824;2022-12-22T09:49:42;42.80;;;23.95;;
60502;SDS011;51448;51.660;5.824;2022-12-22T09:52:20;48.30;;;24.77;;
60502;SDS011;51448;51.660;5.824;2022-12-22T09:57:52;44.55;;;22.63;;
60502;SDS011;51448;51.660;5.824;2022-12-22T10:00:21;44.97;;;24.90;;
60502;SDS011;51448;51.660;5.824;2022-12-22T10:03:05;45.67;;;24.70;;
60502;SDS011;51448;51.660;5.824;2022-12-22T10:08:51;43.20;;;22.30;;
60502;SDS011;51448;51.660;5.824;2022-12-22T10:11:20;43.65;;;22.95;;
60502;SDS011;51448;51.660;5.824;2022-12-22T10:13:47;40.63;;;22.67;;
60502;SDS011;51448;51.660;5.824;2022-12-22T10:16:16;45.75;;;21.48;;
60502;SDS011;51448;51.660;5.824;2022-12-22T10:18:55;38.50;;;21.85;;
60502;SDS011;51448;51.660;5.824;2022-12-22T10:21:37;44.20;;;22.35;;
60502;SDS011;51448;51.660;5.824;2022-12-22T10:24:13;40.42;;;21.38;;
60502;SDS011;51448;51.660;5.824;2022-12-22T10:29:26;36.90;;;21.50;;
60502;SDS011;51448;51.660;5.824;2022-12-22T10:31:57;38.53;;;21.58;;
60502;SDS011;51448;51.660;5.824;2022-12-22T10:34:28;39.50;;;23.00;;
60502;SDS011;51448;51.660;5.824;2022-12-22T10:36:59;36.83;;;21.02;;
60502;SDS011;51448;51.660;5.824;2022-12-22T10:39:31;41.60;;;22.88;;
60502;SDS011;51448;51.660;5.824;2022-12-22T10:42:12;39.70;;;21.98;;
60502;SDS011;51448;51.660;5.824;2022-12-22T10:44:43;42.90;;;22.33;;
60502;SDS011;51448;51.660;5.824;2022-12-22T10:47:16;39.30;;;19.50;;
60502;SDS011;51448;51.660;5.824;2022-12-22T10:49:47;37.20;;;21.35;;
60502;SDS011;51448;51.660;5.824;2022-12-22T10:52:20;38.60;;;20.40;;
60502;SDS011;51448;51.660;5.824;2022-12-22T10:55:17;36.97;;;21.75;;
60502;SDS011;51448;51.660;5.824;2022-12-22T11:00:35;37.55;;;22.00;;
60502;SDS011;51448;51.660;5.824;2022-12-22T11:03:04;36.65;;;22.35;;
60502;SDS011;51448;51.660;5.824;2022-12-22T11:05:34;42.58;;;24.90;;
60502;SDS011;51448;51.660;5.824;2022-12-22T11:08:17;35.10;;;22.73;;
60502;SDS011;51448;51.660;5.824;2022-12-22T11:16:01;32.40;;;23.50;;
60502;SDS011;51448;51.660;5.824;2022-12-22T11:21:28;36.92;;;24.77;;
60502;SDS011;51448;51.660;5.824;2022-12-22T11:36:14;29.65;;;17.48;;
60502;SDS011;51448;51.660;5.824;2022-12-22T11:51:06;28.95;;;16.67;;
60502;SDS011;51448;51.660;5.824;2022-12-22T11:53:55;27.60;;;15.70;;
60502;SDS011;51448;51.660;5.824;2022-12-22T11:57:06;26.08;;;15.80;;
60502;SDS011;51448;51.660;5.824;2022-12-22T11:59:53;26.17;;;15.57;;
60502;SDS011;51448;51.660;5.824;2022-12-22T12:06:05;22.40;;;12.13;;
60502;SDS011;51448;51.660;5.824;2022-12-22T12:14:52;24.42;;;13.40;;
60502;SDS011;51448;51.660;5.824;2022-12-22T12:17:53;21.73;;;12.65;;
60502;SDS011;51448;51.660;5.824;2022-12-22T12:30:51;29.27;;;17.83;;
60502;SDS011;51448;51.660;5.824;2022-12-22T12:36:12;27.38;;;20.00;;
60502;SDS011;51448;51.660;5.824;2022-12-22T12:45:03;30.75;;;21.48;;
60502;SDS011;51448;51.660;5.824;2022-12-22T12:50:52;29.35;;;22.63;;
60502;SDS011;51448;51.660;5.824;2022-12-22T12:53:26;31.90;;;24.10;;
60502;SDS011;51448;51.660;5.824;2022-12-22T12:55:56;34.53;;;23.83;;
60502;SDS011;51448;51.660;5.824;2022-12-22T13:03:53;31.42;;;24.75;;
60502;SDS011;51448;51.660;5.824;2022-12-22T13:09:23;30.23;;;22.88;;
60502;SDS011;51448;51.660;5.824;2022-12-22T13:12:33;33.25;;;24.95;;
60502;SDS011;51448;51.660;5.824;2022-12-22T13:17:57;33.63;;;23.38;;
60502;SDS011;51448;51.660;5.824;2022-12-22T13:20:30;32.00;;;22.90;;
60502;SDS011;51448;51.660;5.824;2022-12-22T13:23:03;32.05;;;23.73;;
60502;SDS011;51448;51.660;5.824;2022-12-22T13:28:27;26.63;;;19.83;;
60502;SDS011;51448;51.660;5.824;2022-12-22T13:30:59;24.85;;;17.15;;
60502;SDS011;51448;51.660;5.824;2022-12-22T13:33:39;21.35;;;15.57;;
60502;SDS011;51448;51.660;5.824;2022-12-22T13:36:17;19.73;;;14.25;;
60502;SDS011;51448;51.660;5.824;2022-12-22T13:39:04;21.65;;;13.68;;
60502;SDS011;51448;51.660;5.824;2022-12-22T13:41:39;21.20;;;14.00;;
60502;SDS011;51448;51.660;5.824;2022-12-22T13:44:15;21.60;;;14.55;;
60502;SDS011;51448;51.660;5.824;2022-12-22T13:46:54;21.08;;;14.80;;
60502;SDS011;51448;51.660;5.824;2022-12-22T13:49:29;24.85;;;17.13;;
60502;SDS011;51448;51.660;5.824;2022-12-22T13:52:20;23.08;;;16.02;;
60502;SDS011;51448;51.660;5.824;2022-12-22T13:54:49;23.00;;;16.38;;
60502;SDS011;51448;51.660;5.824;2022-12-22T13:57:17;26.75;;;16.42;;
60502;SDS011;51448;51.660;5.824;2022-12-22T13:59:48;23.45;;;16.17;;
60502;SDS011;51448;51.660;5.824;2022-12-22T14:02:18;27.67;;;17.00;;
60502;SDS011;51448;51.660;5.824;2022-12-22T14:07:39;23.85;;;16.95;;
60502;SDS011;51448;51.660;5.824;2022-12-22T14:10:06;24.25;;;16.33;;
60502;SDS011;51448;51.660;5.824;2022-12-22T14:12:41;24.33;;;16.95;;
60502;SDS011;51448;51.660;5.824;2022-12-22T14:15:16;23.52;;;17.20;;
60502;SDS011;51448;51.660;5.824;2022-12-22T14:17:45;23.83;;;16.52;;
60502;SDS011;51448;51.660;5.824;2022-12-22T14:25:47;24.92;;;16.92;;
60502;SDS011;51448;51.660;5.824;2022-12-22T14:28:18;23.08;;;17.10;;
60502;SDS011;51448;51.660;5.824;2022-12-22T14:30:53;24.75;;;17.60;;
60502;SDS011;51448;51.660;5.824;2022-12-22T14:36:12;22.93;;;17.17;;
60502;SDS011;51448;51.660;5.824;2022-12-22T14:38:49;23.17;;;16.52;;
60502;SDS011;51448;51.660;5.824;2022-12-22T14:41:37;22.45;;;16.42;;
60502;SDS011;51448;51.660;5.824;2022-12-22T14:47:06;26.10;;;17.10;;
60502;SDS011;51448;51.660;5.824;2022-12-22T14:52:21;24.50;;;16.83;;
60502;SDS011;51448;51.660;5.824;2022-12-22T14:55:01;22.85;;;16.13;;
60502;SDS011;51448;51.660;5.824;2022-12-22T14:57:36;23.70;;;16.77;;
60502;SDS011;51448;51.660;5.824;2022-12-22T15:00:31;25.25;;;17.42;;
60502;SDS011;51448;51.660;5.824;2022-12-22T15:03:00;25.77;;;17.88;;
60502;SDS011;51448;51.660;5.824;2022-12-22T15:05:50;24.70;;;16.48;;
60502;SDS011;51448;51.660;5.824;2022-12-22T15:08:38;25.83;;;17.83;;
60502;SDS011;51448;51.660;5.824;2022-12-22T15:11:10;22.45;;;15.80;;
60502;SDS011;51448;51.660;5.824;2022-12-22T15:13:43;19.90;;;14.43;;
60502;SDS011;51448;51.660;5.824;2022-12-22T15:16:14;19.80;;;14.57;;
60502;SDS011;51448;51.660;5.824;2022-12-22T15:18:46;20.70;;;13.23;;
60502;SDS011;51448;51.660;5.824;2022-12-22T15:21:16;18.67;;;13.13;;
60502;SDS011;51448;51.660;5.824;2022-12-22T15:23:45;19.92;;;12.77;;
60502;SDS011;51448;51.660;5.824;2022-12-22T15:26:13;18.88;;;12.30;;
60502;SDS011;51448;51.660;5.824;2022-12-22T15:28:41;15.75;;;11.38;;
60502;SDS011;51448;51.660;5.824;2022-12-22T15:31:12;17.02;;;12.32;;
60502;SDS011;51448;51.660;5.824;2022-12-22T15:33:43;18.13;;;12.15;;
60502;SDS011;51448;51.660;5.824;2022-12-22T15:36:12;20.13;;;12.32;;
60502;SDS011;51448;51.660;5.824;2022-12-22T15:38:40;18.25;;;11.98;;
60502;SDS011;51448;51.660;5.824;2022-12-22T15:41:08;17.00;;;12.68;;
60502;SDS011;51448;51.660;5.824;2022-12-22T15:43:35;20.52;;;12.98;;
60502;SDS011;51448;51.660;5.824;2022-12-22T15:46:23;21.10;;;12.95;;
60502;SDS011;51448;51.660;5.824;2022-12-22T15:48:51;17.38;;;13.10;;
60502;SDS011;51448;51.660;5.824;2022-12-22T15:51:23;19.67;;;14.20;;
60502;SDS011;51448;51.660;5.824;2022-12-22T15:53:55;17.05;;;12.95;;
60502;SDS011;51448;51.660;5.824;2022-12-22T15:56:25;19.73;;;14.02;;
60502;SDS011;51448;51.660;5.824;2022-12-22T15:58:59;23.45;;;15.75;;
60502;SDS011;51448;51.660;5.824;2022-12-22T16:01:28;21.80;;;14.43;;
60502;SDS011;51448;51.660;5.824;2022-12-22T16:03:56;21.77;;;15.02;;
60502;SDS011;51448;51.660;5.824;2022-12-22T16:06:24;21.00;;;15.60;;
60502;SDS011;51448;51.660;5.824;2022-12-22T16:08:52;21.35;;;15.95;;
60502;SDS011;51448;51.660;5.824;2022-12-22T16:11:20;24.88;;;16.48;;
60502;SDS011;51448;51.660;5.824;2022-12-22T16:13:48;22.80;;;17.98;;
60502;SDS011;51448;51.660;5.824;2022-12-22T16:16:17;19.80;;;13.82;;
60502;SDS011;51448;51.660;5.824;2022-12-22T16:18:45;22.88;;;16.20;;
60502;SDS011;51448;51.660;5.824;2022-12-22T16:21:13;23.73;;;17.13;;
60502;SDS011;51448;51.660;5.824;2022-12-22T16:23:46;21.58;;;15.48;;
60502;SDS011;51448;51.660;5.824;2022-12-22T16:26:17;24.48;;;17.27;;
60502;SDS011;51448;51.660;5.824;2022-12-22T16:28:46;22.58;;;16.50;;
60502;SDS011;51448;51.660;5.824;2022-12-22T16:31:18;25.70;;;18.60;;
60502;SDS011;51448;51.660;5.824;2022-12-22T16:33:49;33.08;;;19.95;;
60502;SDS011;51448;51.660;5.824;2022-12-22T16:36:17;24.48;;;17.80;;
60502;SDS011;51448;51.660;5.824;2022-12-22T16:38:45;25.85;;;16.80;;
60502;SDS011;51448;51.660;5.824;2022-12-22T16:41:18;20.15;;;15.45;;
60502;SDS011;51448;51.660;5.824;2022-12-22T16:43:50;21.27;;;15.85;;
60502;SDS011;51448;51.660;5.824;2022-12-22T16:46:39;19.70;;;14.65;;
60502;SDS011;51448;51.660;5.824;2022-12-22T16:49:07;19.42;;;14.45;;
60502;SDS011;51448;51.660;5.824;2022-12-22T16:51:35;20.20;;;14.23;;
60502;SDS011;51448;51.660;5.824;2022-12-22T16:54:14;22.77;;;15.63;;
60502;SDS011;51448;51.660;5.824;2022-12-22T16:56:42;20.70;;;15.32;;
60502;SDS011;51448;51.660;5.824;2022-12-22T16:59:13;19.40;;;14.68;;
60502;SDS011;51448;51.660;5.824;2022-12-22T17:01:51;22.02;;;14.60;;
60502;SDS011;51448;51.660;5.824;2022-12-22T17:04:29;20.63;;;14.63;;
60502;SDS011;51448;51.660;5.824;2022-12-22T17:07:10;19.33;;;14.02;;
60502;SDS011;51448;51.660;5.824;2022-12-22T17:09:42;16.40;;;13.85;;
60502;SDS011;51448;51.660;5.824;2022-12-22T17:12:20;17.65;;;13.27;;
60502;SDS011;51448;51.660;5.824;2022-12-22T17:14:53;19.23;;;13.50;;
60502;SDS011;51448;51.660;5.824;2022-12-22T17:17:24;16.98;;;12.07;;
60502;SDS011;51448;51.660;5.824;2022-12-22T17:20:01;15.32;;;12.38;;
60502;SDS011;51448;51.660;5.824;2022-12-22T17:22:29;16.25;;;13.23;;